createdAt,value
2023-03-23T16:02:30.835Z,97672.35
2023-03-23T16:05:02.814Z,97678.45
2023-03-23T16:07:32.047Z,97682.39
2023-03-23T16:10:01.276Z,97680.93
2023-03-23T16:12:32.546Z,97682.25
2023-03-23T16:15:02.212Z,97677.64
2023-03-23T16:17:33.684Z,97681.63
2023-03-23T16:20:10.546Z,97684.70
2023-03-23T16:22:39.716Z,97691.36
2023-03-23T16:25:12.879Z,97697.33
2023-03-23T16:27:43.192Z,97699.22
2023-03-23T16:30:25.414Z,97704.52
2023-03-23T16:33:41.989Z,97701.67
2023-03-23T16:36:13.795Z,97700.88
2023-03-23T16:38:49.612Z,97697.80
2023-03-23T16:41:21.124Z,97694.13
2023-03-23T16:43:50.633Z,97697.66
2023-03-23T16:46:22.802Z,97698.64
2023-03-23T16:48:53.034Z,97704.54
2023-03-23T16:51:22.296Z,97705.55
2023-03-23T16:53:51.638Z,97709.84
2023-03-23T16:56:23.308Z,97713.60
2023-03-23T16:58:52.389Z,97711.90
2023-03-23T17:01:22.228Z,97717.17
2023-03-23T17:03:52.223Z,97718.41
2023-03-23T17:06:21.631Z,97720.72
2023-03-23T17:08:51.225Z,97718.95
2023-03-23T17:11:24.157Z,97720.95
2023-03-23T17:13:53.465Z,97720.21
2023-03-23T17:16:23.534Z,97719.80
2023-03-23T17:18:54.197Z,97727.45
2023-03-23T17:21:26.245Z,97732.28
2023-03-23T17:23:56.808Z,97731.14
2023-03-23T17:26:29.074Z,97736.45
2023-03-23T17:28:59.422Z,97736.46
2023-03-23T17:31:29.086Z,97738.86
2023-03-23T17:33:59.626Z,97742.00
2023-03-23T17:36:28.858Z,97745.07
2023-03-23T17:38:58.032Z,97752.23
2023-03-23T17:41:28.316Z,97758.05
2023-03-23T17:43:57.908Z,97751.99
2023-03-23T17:46:27.699Z,97759.55
2023-03-23T17:48:56.937Z,97758.06
2023-03-23T17:51:26.203Z,97760.16
2023-03-23T17:53:56.403Z,97764.98
2023-03-23T17:56:26.953Z,97764.50
2023-03-23T17:58:56.276Z,97767.89
2023-03-23T18:01:26.235Z,97771.52
2023-03-23T18:03:56.423Z,97770.80
2023-03-23T18:06:26.285Z,97765.00
2023-03-23T18:08:57.228Z,97764.98
2023-03-23T18:11:28.080Z,97766.23
2023-03-23T18:13:57.321Z,97761.04
2023-03-23T18:16:28.096Z,97758.85
2023-03-23T18:18:58.156Z,97751.71
2023-03-23T18:21:34.993Z,97742.52
2023-03-23T18:24:04.411Z,97745.84
2023-03-23T18:26:44.251Z,97742.61
2023-03-23T18:29:15.301Z,97748.81
2023-03-23T18:31:46.000Z,97749.99
2023-03-23T18:34:15.708Z,97755.40
2023-03-23T18:36:48.107Z,97757.31
2023-03-23T18:39:20.332Z,97763.02
2023-03-23T18:41:52.890Z,97767.50
2023-03-23T18:44:23.060Z,97770.55
2023-03-23T18:46:52.136Z,97776.27
2023-03-23T18:49:29.014Z,97779.68
2023-03-23T18:52:01.897Z,97785.86
2023-03-23T18:54:36.907Z,97782.83
2023-03-23T18:57:08.454Z,97786.58
2023-03-23T18:59:40.897Z,97781.42
2023-03-23T19:06:37.946Z,97798.61
2023-03-23T19:09:07.527Z,97800.00
2023-03-23T19:11:36.950Z,97799.16
2023-03-23T19:14:07.127Z,97793.20
2023-03-23T19:16:36.342Z,97784.51
2023-03-23T19:19:08.612Z,97775.11
2023-03-23T19:21:40.354Z,97777.71
2023-03-23T19:24:10.356Z,97785.56
2023-03-23T19:26:43.539Z,97784.81
2023-03-23T19:31:50.030Z,97789.08
2023-03-23T19:34:19.781Z,97790.98
2023-03-23T19:36:59.628Z,97794.59
2023-03-23T19:39:35.410Z,97793.80
2023-03-23T19:42:08.141Z,97795.93
2023-03-23T19:44:41.960Z,97801.55
2023-03-23T19:47:14.124Z,97800.80
2023-03-23T19:49:47.441Z,97802.08
2023-03-23T19:52:18.746Z,97800.50
2023-03-23T19:54:48.373Z,97802.59
2023-03-23T19:57:18.268Z,97802.59
2023-03-23T19:59:48.199Z,97797.48
2023-03-23T20:02:27.837Z,97795.94
2023-03-23T20:05:00.736Z,97799.58
2023-03-23T20:07:29.972Z,97806.77
2023-03-23T20:09:59.665Z,97803.21
2023-03-23T20:12:30.962Z,97807.73
2023-03-23T20:15:00.653Z,97807.98
2023-03-23T20:17:31.644Z,97809.92
2023-03-23T20:20:01.700Z,97811.98
2023-03-23T20:22:33.655Z,97813.31
2023-03-23T20:25:03.397Z,97812.21
2023-03-23T20:27:40.421Z,97809.89
2023-03-23T20:30:12.221Z,97812.18
2023-03-23T20:32:41.868Z,97813.61
2023-03-23T20:35:13.025Z,97815.85
2023-03-23T20:37:42.823Z,97815.54
2023-03-23T20:40:17.680Z,97812.71
2023-03-23T20:42:53.139Z,97813.44
2023-03-23T20:45:22.870Z,97813.55
2023-03-23T20:47:52.993Z,97817.61
2023-03-23T20:50:22.988Z,97821.61
2023-03-23T20:52:53.385Z,97823.59
2023-03-23T20:55:23.066Z,97816.05
2023-03-23T20:57:52.879Z,97813.70
2023-03-23T21:00:26.561Z,97812.95
2023-03-23T21:02:56.242Z,97818.47
2023-03-23T21:05:26.524Z,97816.39
2023-03-23T21:07:58.506Z,97822.43
2023-03-23T21:10:29.106Z,97823.00
2023-03-23T21:12:59.017Z,97825.67
2023-03-23T21:15:32.496Z,97832.06
2023-03-23T21:18:02.019Z,97830.09
2023-03-23T21:20:31.535Z,97834.66
2023-03-23T21:23:08.224Z,97834.43
2023-03-23T21:25:38.602Z,97833.15
2023-03-23T21:28:09.650Z,97835.15
2023-03-23T21:30:46.284Z,97832.96
2023-03-23T21:33:17.760Z,97833.73
2023-03-23T21:35:47.595Z,97835.96
2023-03-23T21:38:20.389Z,97836.84
2023-03-23T21:40:52.111Z,97834.94
2023-03-23T21:43:27.880Z,97830.94
2023-03-23T21:46:03.449Z,97828.34
2023-03-23T21:48:33.599Z,97825.40
2023-03-23T21:51:10.077Z,97826.52
2023-03-23T21:53:39.508Z,97832.11
2023-03-23T21:56:11.058Z,97834.11
2023-03-23T21:58:43.066Z,97842.95
2023-03-23T22:01:22.697Z,97846.17
2023-03-23T22:03:52.187Z,97851.04
2023-03-23T22:06:27.421Z,97849.59
2023-03-23T22:08:57.836Z,97852.72
2023-03-23T22:11:31.720Z,97856.98
2023-03-23T22:14:01.764Z,97858.67
2023-03-23T22:16:31.729Z,97861.90
2023-03-23T22:19:02.766Z,97862.39
2023-03-23T22:21:35.045Z,97864.89
2023-03-23T22:24:04.358Z,97867.06
2023-03-23T22:26:34.088Z,97860.86
2023-03-23T22:29:05.077Z,97858.67
2023-03-23T22:31:35.794Z,97846.16
2023-03-23T22:34:06.861Z,97843.35
2023-03-23T22:36:36.604Z,97840.30
2023-03-23T22:39:08.002Z,97840.39
2023-03-23T22:41:41.494Z,97843.61
2023-03-23T22:44:18.963Z,97841.03
2023-03-23T22:46:48.529Z,97841.27
2023-03-23T22:49:18.428Z,97838.91
2023-03-23T22:51:47.797Z,97833.71
2023-03-23T22:54:17.478Z,97833.07
2023-03-23T22:56:46.861Z,97834.95
2023-03-23T22:59:17.968Z,97834.83
2023-03-23T23:01:47.249Z,97835.40
2023-03-23T23:04:17.890Z,97837.70
2023-03-23T23:06:47.573Z,97835.94
2023-03-23T23:09:17.508Z,97834.55
2023-03-23T23:11:46.704Z,97831.02
2023-03-23T23:14:16.206Z,97826.34
2023-03-23T23:16:46.770Z,97825.59
2023-03-23T23:19:17.026Z,97824.77
2023-03-23T23:21:46.717Z,97826.29
2023-03-23T23:24:17.107Z,97829.77
2023-03-23T23:26:46.767Z,97833.48
2023-03-23T23:29:16.683Z,97837.80
2023-03-23T23:31:47.506Z,97833.66
2023-03-23T23:34:16.587Z,97834.70
2023-03-23T23:36:47.225Z,97835.69
2023-03-23T23:39:17.048Z,97836.84
2023-03-23T23:41:46.688Z,97839.53
2023-03-23T23:44:17.206Z,97841.31
2023-03-23T23:46:46.567Z,97841.73
2023-03-23T23:49:16.492Z,97842.44
2023-03-23T23:51:46.424Z,97838.96
2023-03-23T23:54:24.141Z,97838.71
2023-03-23T23:56:54.037Z,97836.00
2023-03-23T23:59:23.728Z,97838.79
